createdAt,value
2018-02-08T00:00:30.615Z,50.13
2018-02-08T00:02:58.062Z,51.53
2018-02-08T00:05:25.554Z,47.30
2018-02-08T00:07:53.013Z,52.53
2018-02-08T00:10:20.458Z,49.90
2018-02-08T00:12:47.922Z,52.47
2018-02-08T00:15:15.374Z,48.43
2018-02-08T00:17:42.875Z,48.00
2018-02-08T00:20:10.350Z,45.97
2018-02-08T00:22:45.785Z,49.50
2018-02-08T00:25:13.259Z,49.80
2018-02-08T00:27:40.713Z,49.00
2018-02-08T00:30:08.162Z,49.40
2018-02-08T00:32:35.606Z,53.70
2018-02-08T00:35:03.051Z,48.80
2018-02-08T00:37:30.511Z,50.93
2018-02-08T00:39:57.973Z,52.70
2018-02-08T00:42:25.418Z,48.37
2018-02-08T00:44:52.866Z,50.03
2018-02-08T00:47:20.343Z,47.77
2018-02-08T00:49:47.787Z,52.73
2018-02-08T00:52:15.225Z,49.97
2018-02-08T00:54:42.671Z,52.73
2018-02-08T00:57:10.119Z,48.27
2018-02-08T00:59:37.558Z,50.00
2018-02-08T01:02:05.006Z,51.27
2018-02-08T01:04:32.467Z,48.67
2018-02-08T01:06:59.922Z,47.30
2018-02-08T01:09:27.371Z,48.43
2018-02-08T01:11:54.834Z,47.57
2018-02-08T01:14:22.808Z,46.77
2018-02-08T01:16:50.269Z,48.37
2018-02-08T01:19:17.731Z,47.63
2018-02-08T01:21:45.183Z,49.07
2018-02-08T01:24:12.630Z,48.80
2018-02-08T01:26:40.070Z,48.20
2018-02-08T01:29:07.529Z,48.27
2018-02-08T01:31:34.976Z,47.93
2018-02-08T01:34:02.440Z,48.13
2018-02-08T01:36:29.882Z,50.13
2018-02-08T01:38:57.332Z,49.57
2018-02-08T01:41:24.778Z,49.07
2018-02-08T01:43:52.271Z,49.03
2018-02-08T01:46:19.710Z,48.87
2018-02-08T01:48:47.160Z,50.63
2018-02-08T01:51:14.606Z,48.50
2018-02-08T01:53:42.042Z,49.07
2018-02-08T01:56:09.513Z,48.70
2018-02-08T01:58:36.957Z,48.97
2018-02-08T02:01:04.410Z,48.87
2018-02-08T02:03:31.849Z,49.83
2018-02-08T02:05:59.311Z,46.47
2018-02-08T02:08:26.745Z,50.30
2018-02-08T02:10:54.233Z,49.37
2018-02-08T02:13:21.669Z,50.90
2018-02-08T02:15:49.105Z,48.77
2018-02-08T02:18:16.555Z,48.17
2018-02-08T02:20:44.006Z,46.93
2018-02-08T02:23:11.449Z,47.03
2018-02-08T02:25:38.900Z,50.10
2018-02-08T02:28:06.345Z,50.03
2018-02-08T02:30:33.788Z,49.03
2018-02-08T02:33:01.242Z,48.03
2018-02-08T02:35:28.699Z,50.87
2018-02-08T02:37:56.165Z,49.93
2018-02-08T02:40:23.613Z,51.03
2018-02-08T02:42:51.067Z,49.17
2018-02-08T02:45:18.538Z,50.20
2018-02-08T02:47:45.983Z,46.93
2018-02-08T02:50:13.434Z,47.20
2018-02-08T02:52:40.871Z,52.13
2018-02-08T02:55:08.324Z,47.37
2018-02-08T02:57:35.758Z,49.43
2018-02-08T03:00:03.222Z,48.37
2018-02-08T03:02:30.662Z,51.47
2018-02-08T03:04:58.707Z,50.03
2018-02-08T03:07:26.149Z,52.60
2018-02-08T03:09:53.593Z,48.97
2018-02-08T03:12:21.053Z,50.00
2018-02-08T03:14:48.493Z,49.67
2018-02-08T03:17:15.928Z,48.50
2018-02-08T03:19:43.365Z,44.80
2018-02-08T03:22:10.822Z,46.73
2018-02-08T03:24:38.257Z,50.87
2018-02-08T03:27:05.714Z,47.83
2018-02-08T03:29:33.147Z,48.90
2018-02-08T03:32:00.608Z,47.60
2018-02-08T03:34:28.072Z,47.07
2018-02-08T03:36:55.524Z,48.57
2018-02-08T03:39:22.989Z,51.60
2018-02-08T03:41:50.454Z,49.77
2018-02-08T03:44:17.884Z,50.63
2018-02-08T03:46:45.330Z,49.00
2018-02-08T03:49:12.770Z,50.63
2018-02-08T03:51:40.247Z,49.53
2018-02-08T03:54:07.703Z,53.17
2018-02-08T03:56:35.132Z,53.43
2018-02-08T03:59:02.588Z,49.27
2018-02-08T04:01:30.043Z,52.47
2018-02-08T04:03:57.530Z,49.67
2018-02-08T04:06:24.966Z,48.27
2018-02-08T04:08:52.424Z,47.37
2018-02-08T04:11:19.859Z,44.17
2018-02-08T04:13:47.312Z,47.80
2018-02-08T04:16:14.756Z,47.20
2018-02-08T04:18:42.242Z,49.03
2018-02-08T04:21:09.691Z,45.93
2018-02-08T04:23:37.132Z,46.07
2018-02-08T04:26:04.582Z,45.90
2018-02-08T04:28:32.029Z,50.93
2018-02-08T04:30:59.479Z,48.53
2018-02-08T04:33:26.912Z,45.03
2018-02-08T04:35:54.375Z,47.90
2018-02-08T04:41:48.175Z,49.67
2018-02-08T04:44:27.450Z,49.57
2018-02-08T04:47:07.001Z,47.37
2018-02-08T04:49:34.562Z,44.97
2018-02-08T04:52:02.056Z,48.67
2018-02-08T04:54:29.515Z,47.73
2018-02-08T04:56:57.021Z,51.43
2018-02-08T04:59:24.516Z,52.60
2018-02-08T05:01:52.000Z,52.60
2018-02-08T05:04:19.580Z,51.57
2018-02-08T05:06:47.049Z,50.53
2018-02-08T05:09:14.524Z,50.50
2018-02-08T05:11:42.021Z,51.40
2018-02-08T05:14:09.492Z,52.67
2018-02-08T05:16:37.051Z,52.50
2018-02-08T05:19:04.616Z,50.23
2018-02-08T05:21:32.113Z,52.90
2018-02-08T05:23:59.616Z,48.27
2018-02-08T05:26:27.091Z,54.50
2018-02-08T05:28:54.749Z,49.03
2018-02-08T05:31:22.235Z,54.87
2018-02-08T05:33:49.728Z,52.00
2018-02-08T05:36:17.201Z,51.40
2018-02-08T05:38:44.684Z,59.07
2018-02-08T05:41:12.158Z,66.23
2018-02-08T05:43:39.659Z,54.90
2018-02-08T05:46:07.126Z,54.40
2018-02-08T05:48:34.668Z,57.53
2018-02-08T05:51:02.254Z,55.60
2018-02-08T05:53:29.734Z,55.40
2018-02-08T05:55:57.240Z,57.03
2018-02-08T05:58:24.714Z,61.43
2018-02-08T06:00:52.191Z,57.37
2018-02-08T06:03:19.679Z,57.97
2018-02-08T06:05:47.192Z,60.67
2018-02-08T06:08:14.674Z,57.17
2018-02-08T06:10:42.141Z,59.73
2018-02-08T06:13:09.624Z,49.80
2018-02-08T06:15:37.105Z,59.17
2018-02-08T06:18:04.593Z,53.73
2018-02-08T06:20:32.115Z,57.33
2018-02-08T06:22:59.592Z,53.33
2018-02-08T06:25:27.081Z,54.70
2018-02-08T06:27:54.628Z,55.80
2018-02-08T06:30:22.141Z,55.73
2018-02-08T06:32:49.664Z,55.40
2018-02-08T06:35:17.413Z,54.30
2018-02-08T06:37:44.890Z,53.00
2018-02-08T06:40:12.365Z,56.03
2018-02-08T06:42:39.840Z,53.07
2018-02-08T06:45:07.319Z,55.73
2018-02-08T06:47:34.793Z,52.47
2018-02-08T06:50:02.300Z,59.57
2018-02-08T06:52:29.767Z,51.27
2018-02-08T06:54:57.322Z,48.57
2018-02-08T06:57:24.783Z,53.23
2018-02-08T06:59:52.327Z,62.33
2018-02-08T07:02:19.799Z,63.20
2018-02-08T07:04:47.386Z,57.63
2018-02-08T07:07:14.949Z,59.67
2018-02-08T07:09:42.419Z,58.23
2018-02-08T07:12:10.014Z,57.53
2018-02-08T07:14:37.573Z,59.27
2018-02-08T07:17:05.144Z,54.73
2018-02-08T07:19:32.604Z,56.60
2018-02-08T07:22:00.077Z,59.90
2018-02-08T07:24:27.660Z,55.60
2018-02-08T07:26:55.227Z,57.37
2018-02-08T07:29:22.723Z,55.87
2018-02-08T07:31:50.263Z,64.57
2018-02-08T07:34:17.849Z,57.87
2018-02-08T07:36:45.452Z,55.63
2018-02-08T07:39:12.941Z,57.97
2018-02-08T07:41:40.441Z,54.93
2018-02-08T07:44:07.934Z,58.53
2018-02-08T07:46:35.537Z,55.23
2018-02-08T07:49:03.496Z,55.20
2018-02-08T07:51:30.973Z,62.50
2018-02-08T07:53:59.482Z,55.50
2018-02-08T07:56:27.042Z,59.03
2018-02-08T07:58:54.551Z,60.80
2018-02-08T08:01:22.054Z,56.93
2018-02-08T08:03:49.620Z,58.10
2018-02-08T08:06:17.083Z,56.17
2018-02-08T08:08:44.566Z,54.80
2018-02-08T08:11:12.053Z,56.23
2018-02-08T08:13:39.565Z,57.13
2018-02-08T08:16:07.060Z,60.80
2018-02-08T08:18:34.547Z,58.20
2018-02-08T08:21:02.041Z,58.03
2018-02-08T08:23:29.545Z,57.87
2018-02-08T08:25:57.033Z,57.53
2018-02-08T08:28:24.513Z,71.90
2018-02-08T08:30:51.999Z,66.13
2018-02-08T08:33:19.564Z,60.67
2018-02-08T08:35:47.182Z,57.00
2018-02-08T08:38:14.683Z,56.43
2018-02-08T08:40:42.202Z,57.10
2018-02-08T08:43:09.707Z,59.13
2018-02-08T08:45:37.247Z,61.67
2018-02-08T08:48:04.749Z,59.00
2018-02-08T08:50:32.229Z,57.17
2018-02-08T08:52:59.740Z,56.87
2018-02-08T08:55:27.241Z,57.93
2018-02-08T08:57:54.767Z,59.83
2018-02-08T09:00:22.255Z,56.07
2018-02-08T09:02:49.761Z,58.83
2018-02-08T09:05:17.263Z,57.73
2018-02-08T09:07:44.838Z,61.20
2018-02-08T09:10:12.363Z,60.20
2018-02-08T09:12:39.853Z,56.53
2018-02-08T09:15:07.374Z,61.53
2018-02-08T09:17:34.901Z,58.20
2018-02-08T09:20:02.410Z,55.37
2018-02-08T09:22:29.930Z,59.90
2018-02-08T09:24:58.278Z,59.47
2018-02-08T09:27:25.867Z,57.67
2018-02-08T09:29:53.460Z,61.97
2018-02-08T09:32:21.173Z,61.50
2018-02-08T09:34:48.750Z,59.67
2018-02-08T09:37:16.399Z,60.80
2018-02-08T09:39:43.903Z,59.10
2018-02-08T09:42:11.392Z,61.57
2018-02-08T09:44:39.000Z,62.73
2018-02-08T09:47:06.792Z,62.70
2018-02-08T09:49:34.285Z,61.87
2018-02-08T09:52:01.797Z,62.63
2018-02-08T09:54:29.655Z,62.43
2018-02-08T09:56:57.222Z,60.93
2018-02-08T09:59:25.713Z,59.17
2018-02-08T10:01:53.214Z,58.50
2018-02-08T10:04:20.683Z,56.87
2018-02-08T10:06:48.170Z,62.77
2018-02-08T10:09:15.641Z,55.93
2018-02-08T10:11:43.123Z,63.97
2018-02-08T10:14:10.597Z,56.93
2018-02-08T10:16:38.110Z,62.43
2018-02-08T10:19:05.577Z,65.00
2018-02-08T10:21:33.127Z,59.00
2018-02-08T10:24:00.680Z,61.77
2018-02-08T10:26:28.209Z,63.43
2018-02-08T10:28:55.773Z,56.83
2018-02-08T10:31:23.225Z,60.70
2018-02-08T10:33:50.722Z,57.43
2018-02-08T10:36:18.217Z,61.10
2018-02-08T10:38:45.738Z,56.73
2018-02-08T10:41:13.212Z,60.73
2018-02-08T10:43:40.798Z,65.77
2018-02-08T10:46:08.283Z,66.70
2018-02-08T10:48:35.745Z,62.67
2018-02-08T10:51:03.214Z,61.13
2018-02-08T10:53:30.683Z,60.83
2018-02-08T10:55:58.196Z,57.83
2018-02-08T10:58:25.716Z,58.13
2018-02-08T11:00:53.210Z,57.97
2018-02-08T11:03:20.707Z,56.77
2018-02-08T11:05:48.193Z,54.63
2018-02-08T11:08:15.657Z,53.23
2018-02-08T11:10:43.150Z,52.37
2018-02-08T11:13:10.617Z,55.43
2018-02-08T11:15:38.115Z,52.97
2018-02-08T11:18:05.591Z,50.57
2018-02-08T11:20:33.153Z,48.90
2018-02-08T11:23:00.650Z,51.93
2018-02-08T11:25:28.123Z,52.67
2018-02-08T11:27:55.614Z,58.27
2018-02-08T11:30:23.121Z,62.50
2018-02-08T11:32:50.619Z,60.83
2018-02-08T11:35:18.201Z,71.00
2018-02-08T11:37:45.703Z,50.83
2018-02-08T11:40:13.203Z,44.30
2018-02-08T11:42:40.744Z,46.37
2018-02-08T11:47:42.158Z,49.03
2018-02-08T11:50:09.645Z,46.27
2018-02-08T11:52:37.115Z,44.97
2018-02-08T11:55:04.622Z,44.93
2018-02-08T11:57:32.099Z,43.67
2018-02-08T11:59:59.611Z,42.43
2018-02-08T12:02:27.166Z,38.93
2018-02-08T12:04:54.658Z,38.23
2018-02-08T12:07:22.121Z,37.30
2018-02-08T12:09:49.713Z,43.33
2018-02-08T12:12:17.205Z,43.50
2018-02-08T12:14:44.689Z,37.40
2018-02-08T12:17:12.235Z,36.43
2018-02-08T12:19:39.722Z,34.13
2018-02-08T12:22:07.182Z,35.13
2018-02-08T12:24:34.664Z,54.03
2018-02-08T12:27:02.434Z,36.87
2018-02-08T12:29:29.930Z,35.27
2018-02-08T12:31:57.409Z,34.20
2018-02-08T12:34:24.880Z,35.87
2018-02-08T12:36:52.354Z,37.47
2018-02-08T12:39:19.824Z,34.83
2018-02-08T12:41:47.341Z,34.47
2018-02-08T12:44:14.801Z,36.37
2018-02-08T12:46:42.382Z,34.77
2018-02-08T12:49:09.952Z,37.83
2018-02-08T12:51:37.480Z,43.60
2018-02-08T12:54:04.938Z,45.50
2018-02-08T12:56:32.483Z,42.43
2018-02-08T12:58:59.953Z,46.10
2018-02-08T13:01:27.404Z,43.90
2018-02-08T13:03:54.879Z,40.50
2018-02-08T13:06:22.345Z,39.63
2018-02-08T13:08:49.928Z,38.47
2018-02-08T13:11:17.516Z,43.20
2018-02-08T13:13:44.986Z,36.33
2018-02-08T13:16:12.558Z,36.53
2018-02-08T13:18:40.013Z,35.67
2018-02-08T13:21:07.649Z,32.73
2018-02-08T13:23:35.128Z,34.90
2018-02-08T13:26:02.600Z,39.00
2018-02-08T13:28:30.091Z,34.23
2018-02-08T13:30:57.608Z,32.03
2018-02-08T13:33:25.090Z,33.53
2018-02-08T13:35:52.603Z,35.27
2018-02-08T13:38:20.113Z,31.73
2018-02-08T13:40:49.994Z,34.57
2018-02-08T13:43:17.504Z,32.27
2018-02-08T13:45:44.991Z,35.43
2018-02-08T13:48:14.940Z,33.13
2018-02-08T13:50:59.224Z,30.80
2018-02-08T13:56:31.470Z,32.30
2018-02-08T13:59:00.817Z,35.03
2018-02-08T14:01:32.064Z,34.77
2018-02-08T14:03:59.575Z,32.40
2018-02-08T14:06:27.069Z,31.10
2018-02-08T14:08:54.613Z,30.63
2018-02-08T14:11:22.107Z,33.20
2018-02-08T14:13:49.571Z,31.17
2018-02-08T14:16:17.050Z,35.27
2018-02-08T14:18:44.578Z,32.30
2018-02-08T14:21:12.050Z,30.60
2018-02-08T14:23:39.501Z,30.47
2018-02-08T14:26:06.985Z,33.87
2018-02-08T14:28:34.479Z,33.57
2018-02-08T14:31:02.095Z,32.60
2018-02-08T14:33:29.632Z,32.80
2018-02-08T14:35:57.200Z,34.60
2018-02-08T14:38:24.664Z,33.23
2018-02-08T14:40:52.243Z,32.07
2018-02-08T14:43:19.719Z,30.03
2018-02-08T14:45:47.193Z,33.13
2018-02-08T14:48:14.764Z,31.43
2018-02-08T14:50:42.233Z,31.47
2018-02-08T14:53:09.712Z,31.97
2018-02-08T14:55:37.266Z,31.60
2018-02-08T14:58:04.745Z,30.63
2018-02-08T15:00:32.216Z,35.20
2018-02-08T15:02:59.710Z,33.33
2018-02-08T15:05:27.186Z,32.63
2018-02-08T15:07:54.669Z,32.33
2018-02-08T15:10:22.129Z,31.77
2018-02-08T15:12:49.704Z,31.73
2018-02-08T15:15:17.234Z,32.70
2018-02-08T15:17:44.705Z,33.50
2018-02-08T15:20:12.168Z,33.77
2018-02-08T15:22:39.646Z,33.67
2018-02-08T15:25:07.140Z,34.60
2018-02-08T15:27:34.634Z,33.13
2018-02-08T15:30:04.933Z,34.63
2018-02-08T15:32:32.498Z,33.57
2018-02-08T15:35:00.012Z,28.17
2018-02-08T15:37:27.540Z,34.77
2018-02-08T15:39:54.991Z,33.27
2018-02-08T15:42:22.478Z,32.13
2018-02-08T15:44:49.950Z,33.27
2018-02-08T15:47:17.422Z,36.40
2018-02-08T15:49:44.928Z,36.23
2018-02-08T15:52:12.417Z,36.97
2018-02-08T15:54:39.888Z,36.40
2018-02-08T15:57:07.395Z,35.03
2018-02-08T15:59:34.929Z,36.50
2018-02-08T16:02:02.395Z,33.43
2018-02-08T16:04:29.909Z,32.60
2018-02-08T16:06:57.365Z,32.77
2018-02-08T16:09:24.853Z,33.67
2018-02-08T16:11:52.309Z,35.13
2018-02-08T16:14:19.895Z,37.10
2018-02-08T16:16:47.360Z,35.13
2018-02-08T16:19:14.863Z,35.27
2018-02-08T16:21:42.391Z,33.77
2018-02-08T16:24:09.873Z,34.43
2018-02-08T16:26:37.443Z,32.13
2018-02-08T16:29:05.041Z,35.17
2018-02-08T16:31:32.553Z,33.47
2018-02-08T16:34:00.083Z,37.03
2018-02-08T16:36:27.632Z,34.30
2018-02-08T16:38:55.237Z,35.30
2018-02-08T16:41:22.790Z,32.87
2018-02-08T16:43:50.258Z,36.90
2018-02-08T16:46:17.747Z,34.63
2018-02-08T16:48:45.229Z,31.57
2018-02-08T16:51:12.840Z,33.13
2018-02-08T16:53:40.314Z,31.20
2018-02-08T16:56:07.802Z,31.17
2018-02-08T16:58:35.369Z,32.07
2018-02-08T17:01:02.888Z,31.80
2018-02-08T17:03:30.388Z,33.47
2018-02-08T17:05:57.857Z,32.57
2018-02-08T17:08:25.365Z,34.90
2018-02-08T17:10:52.845Z,35.60
2018-02-08T17:13:20.336Z,36.13
2018-02-08T17:15:47.811Z,36.13
2018-02-08T17:18:15.322Z,35.73
2018-02-08T17:20:42.793Z,34.10
2018-02-08T17:23:10.278Z,34.37
2018-02-08T17:25:37.761Z,35.37
2018-02-08T17:28:05.311Z,33.20
2018-02-08T17:30:32.739Z,36.33
2018-02-08T17:33:00.295Z,35.80
2018-02-08T17:35:27.901Z,35.30
2018-02-08T17:37:55.400Z,35.50
2018-02-08T17:40:22.866Z,33.97
2018-02-08T17:42:50.340Z,35.27
2018-02-08T17:45:17.853Z,35.67
2018-02-08T17:47:45.337Z,37.83
2018-02-08T17:50:12.849Z,35.87
2018-02-08T17:52:40.414Z,31.17
2018-02-08T17:55:07.984Z,32.80
2018-02-08T17:57:35.470Z,34.93
2018-02-08T18:00:02.948Z,33.40
2018-02-08T18:02:30.426Z,34.23
2018-02-08T18:04:57.897Z,34.27
2018-02-08T18:07:25.393Z,35.93
2018-02-08T18:09:52.881Z,36.27
2018-02-08T18:12:20.392Z,33.70
2018-02-08T18:14:47.855Z,37.27
2018-02-08T18:17:15.620Z,36.23
2018-02-08T18:19:43.133Z,34.63
2018-02-08T18:22:11.880Z,33.33
2018-02-08T18:24:39.345Z,35.83
2018-02-08T18:27:06.841Z,34.33
2018-02-08T18:29:34.414Z,36.83
2018-02-08T18:32:01.886Z,35.87
2018-02-08T18:34:29.385Z,39.50
2018-02-08T18:36:57.026Z,37.37
2018-02-08T18:39:24.591Z,35.97
2018-02-08T18:41:52.055Z,37.43
2018-02-08T18:44:19.633Z,38.43
2018-02-08T18:46:47.232Z,38.23
2018-02-08T18:49:14.790Z,36.80
2018-02-08T18:51:42.361Z,37.70
2018-02-08T18:54:09.831Z,37.53
2018-02-08T18:56:37.309Z,36.87
2018-02-08T18:59:04.871Z,38.53
2018-02-08T19:01:32.366Z,39.40
2018-02-08T19:03:59.911Z,40.07
2018-02-08T19:06:27.500Z,37.57
2018-02-08T19:08:54.993Z,39.87
2018-02-08T19:11:22.498Z,37.40
2018-02-08T19:13:49.964Z,38.27
2018-02-08T19:16:17.438Z,37.73
2018-02-08T19:18:44.994Z,37.50
2018-02-08T19:21:12.475Z,36.43
2018-02-08T19:23:39.978Z,35.87
2018-02-08T19:26:07.449Z,36.17
2018-02-08T19:28:34.929Z,36.70
2018-02-08T19:31:02.501Z,35.27
2018-02-08T19:33:29.980Z,34.70
2018-02-08T19:35:57.472Z,38.00
2018-02-08T19:38:24.953Z,37.87
2018-02-08T19:40:52.420Z,36.13
2018-02-08T19:43:19.950Z,36.33
2018-02-08T19:45:47.460Z,36.13
2018-02-08T19:48:14.961Z,34.83
2018-02-08T19:50:42.463Z,36.63
2018-02-08T19:53:09.941Z,35.10
2018-02-08T19:55:37.426Z,34.23
2018-02-08T19:58:04.921Z,37.90
2018-02-08T20:00:32.421Z,38.33
2018-02-08T20:02:59.895Z,39.20
2018-02-08T20:05:27.372Z,39.30
2018-02-08T20:07:54.842Z,37.87
2018-02-08T20:10:22.313Z,40.43
2018-02-08T20:12:49.881Z,40.20
2018-02-08T20:15:33.189Z,35.77
2018-02-08T20:18:00.692Z,36.37
2018-02-08T20:20:28.278Z,37.33
2018-02-08T20:22:55.742Z,35.77
2018-02-08T20:25:28.871Z,37.43
2018-02-08T20:27:56.352Z,37.93
2018-02-08T20:30:23.843Z,38.23
2018-02-08T20:32:51.374Z,40.50
2018-02-08T20:35:18.848Z,38.93
2018-02-08T20:37:46.403Z,40.93
2018-02-08T20:40:23.036Z,41.77
2018-02-08T20:42:56.187Z,40.67
2018-02-08T20:45:23.653Z,39.17
2018-02-08T20:47:51.243Z,39.67
2018-02-08T20:50:18.751Z,42.10
2018-02-08T20:52:46.220Z,43.80
2018-02-08T20:55:13.682Z,44.77
2018-02-08T20:57:41.147Z,43.20
2018-02-08T21:00:08.621Z,50.50
2018-02-08T21:02:36.088Z,48.17
2018-02-08T21:05:03.615Z,42.07
2018-02-08T21:07:31.136Z,44.47
2018-02-08T21:09:58.631Z,42.47
2018-02-08T21:12:26.106Z,43.20
2018-02-08T21:14:53.613Z,42.27
2018-02-08T21:17:21.077Z,45.53
2018-02-08T21:19:48.563Z,45.23
2018-02-08T21:22:16.038Z,44.10
2018-02-08T21:24:43.529Z,42.70
2018-02-08T21:27:11.026Z,45.00
2018-02-08T21:29:38.541Z,45.50
2018-02-08T21:32:06.057Z,44.27
2018-02-08T21:34:33.554Z,42.83
2018-02-08T21:37:01.098Z,43.50
2018-02-08T21:39:28.613Z,41.43
2018-02-08T21:41:56.088Z,43.40
2018-02-08T21:44:23.584Z,42.20
2018-02-08T21:46:51.122Z,39.97
2018-02-08T21:49:18.840Z,41.90
2018-02-08T21:51:46.368Z,43.60
2018-02-08T21:54:13.893Z,41.87
2018-02-08T21:56:41.454Z,39.50
2018-02-08T21:59:08.933Z,36.67
2018-02-08T22:01:36.432Z,39.17
2018-02-08T22:04:03.905Z,40.57
2018-02-08T22:06:31.483Z,38.07
2018-02-08T22:11:32.779Z,39.07
2018-02-08T22:14:00.275Z,39.63
2018-02-08T22:16:27.791Z,40.23
2018-02-08T22:18:55.264Z,42.17
2018-02-08T22:21:22.754Z,39.53
2018-02-08T22:23:57.833Z,40.50
2018-02-08T22:26:25.318Z,38.83
2018-02-08T22:28:52.795Z,39.83
2018-02-08T22:31:20.285Z,38.03
2018-02-08T22:33:47.813Z,41.67
2018-02-08T22:36:15.399Z,41.80
2018-02-08T22:38:42.878Z,40.00
2018-02-08T22:41:10.355Z,40.93
2018-02-08T22:43:37.877Z,38.10
2018-02-08T22:46:05.379Z,39.20
2018-02-08T22:48:32.886Z,41.23
2018-02-08T22:51:00.480Z,44.47
2018-02-08T22:53:27.970Z,42.27
2018-02-08T22:55:55.472Z,40.37
2018-02-08T22:58:22.976Z,41.27
2018-02-08T23:00:50.458Z,42.23
2018-02-08T23:03:17.944Z,42.67
2018-02-08T23:05:45.417Z,41.60
2018-02-08T23:08:12.987Z,42.20
2018-02-08T23:10:40.562Z,42.17
2018-02-08T23:13:08.045Z,42.40
2018-02-08T23:15:35.547Z,44.30
2018-02-08T23:18:03.071Z,40.43
2018-02-08T23:20:30.693Z,41.30
2018-02-08T23:22:58.202Z,42.87
2018-02-08T23:25:25.671Z,41.83
2018-02-08T23:27:53.261Z,38.60
2018-02-08T23:30:20.773Z,39.93
2018-02-08T23:32:48.245Z,40.80
2018-02-08T23:35:15.748Z,41.03
2018-02-08T23:37:43.207Z,40.83
2018-02-08T23:40:10.697Z,40.17
2018-02-08T23:42:38.174Z,40.50
2018-02-08T23:45:05.670Z,40.50
2018-02-08T23:47:33.222Z,41.00
2018-02-08T23:50:00.712Z,40.30
2018-02-08T23:52:28.257Z,41.53
2018-02-08T23:54:55.933Z,42.17
2018-02-08T23:57:23.397Z,43.23
2018-02-08T23:59:50.917Z,42.93
